Los Angeles, California
Current Conditions -  °F | °C
As of 2:47 AM on Friday 31 Oct 2014 (Local Time) from KCQT Reporting Station
Broken Clouds Broken Clouds  
Wind Chill: 64°   Ceiling: 1500
Heat Index: 64°   Visibility: 9mi
Dew Point: 59°   Wind: 0mph
Humidity: 84%   Direction: NA
Pressure: 29.96"   Gusts: NA
Location:  34.05°N, 118.24°W
Report Text: KCQT 310947Z AUTO 00000KT 9SM BKN015 18/15 A2996 RMK AO2 SLP142 T01780150
Loading
Personal Weather Stations






























Interactive Weather Map
Tropical Storm Tracking
New forecast layout! Learn more

10-Day Weather Forecast

Advertisements
Track Severe Weather on mobile